createdAt,value
2018-05-13T00:01:02.109Z,18.50
2018-05-13T00:03:29.686Z,21.43
2018-05-13T00:05:57.251Z,17.40
2018-05-13T00:08:24.807Z,17.20
2018-05-13T00:10:52.371Z,24.70
2018-05-13T00:13:19.926Z,16.50
2018-05-13T00:15:47.532Z,17.60
2018-05-13T00:18:15.080Z,20.70
2018-05-13T00:20:43.420Z,19.13
2018-05-13T00:23:10.995Z,15.03
2018-05-13T00:25:39.306Z,17.23
2018-05-13T00:28:06.877Z,17.50
2018-05-13T00:30:34.420Z,18.07
2018-05-13T00:33:02.002Z,22.03
2018-05-13T00:35:29.642Z,22.33
2018-05-13T00:37:57.278Z,16.13
2018-05-13T00:40:24.769Z,24.03
2018-05-13T00:42:52.355Z,19.53
2018-05-13T00:45:19.950Z,18.77
2018-05-13T00:47:48.287Z,16.27
2018-05-13T00:50:15.876Z,14.03
2018-05-13T00:52:43.415Z,15.03
2018-05-13T00:55:10.989Z,18.57
2018-05-13T00:57:38.566Z,19.00
2018-05-13T01:00:06.398Z,21.20
2018-05-13T01:02:33.941Z,17.33
2018-05-13T01:05:01.687Z,18.57
2018-05-13T01:07:29.230Z,19.97
2018-05-13T01:09:56.803Z,18.07
2018-05-13T01:12:24.587Z,16.13
2018-05-13T01:14:52.196Z,13.70
2018-05-13T01:17:19.786Z,16.60
2018-05-13T01:19:47.645Z,20.83
2018-05-13T01:22:15.208Z,21.63
2018-05-13T01:24:42.752Z,17.37
2018-05-13T01:27:10.298Z,18.70
2018-05-13T01:29:37.869Z,15.70
2018-05-13T01:32:05.443Z,17.70
2018-05-13T01:34:32.966Z,17.03
2018-05-13T01:37:00.563Z,19.40
2018-05-13T01:39:28.201Z,15.13
2018-05-13T01:41:55.865Z,15.90
2018-05-13T01:44:23.447Z,20.57
2018-05-13T01:46:51.113Z,20.17
2018-05-13T01:49:18.688Z,24.13
2018-05-13T01:51:46.230Z,24.83
2018-05-13T01:54:13.780Z,22.27
2018-05-13T01:56:41.311Z,19.27
2018-05-13T01:59:08.895Z,17.97
2018-05-13T02:01:36.462Z,16.10
2018-05-13T02:04:04.297Z,19.77
2018-05-13T02:06:31.895Z,18.20
2018-05-13T02:08:59.422Z,18.47
2018-05-13T02:11:26.994Z,17.03
2018-05-13T02:13:54.523Z,19.63
2018-05-13T02:16:22.124Z,17.43
2018-05-13T02:18:49.645Z,17.53
2018-05-13T02:21:17.192Z,15.87
2018-05-13T02:23:44.725Z,25.43
2018-05-13T02:26:12.846Z,19.47
2018-05-13T02:28:40.400Z,18.43
2018-05-13T02:31:07.926Z,19.80
2018-05-13T02:33:35.473Z,16.33
2018-05-13T02:36:03.029Z,15.20
2018-05-13T02:38:30.612Z,21.20
2018-05-13T02:40:58.180Z,20.57
2018-05-13T02:43:25.719Z,19.53
2018-05-13T02:45:53.313Z,23.93
2018-05-13T02:48:20.841Z,21.47
2018-05-13T02:50:48.653Z,22.33
2018-05-13T02:53:16.211Z,23.10
2018-05-13T02:55:44.500Z,25.50
2018-05-13T02:58:12.845Z,22.20
2018-05-13T03:00:40.438Z,21.07
2018-05-13T03:03:08.062Z,27.33
2018-05-13T03:05:35.640Z,30.17
2018-05-13T03:08:03.961Z,26.83
2018-05-13T03:10:31.659Z,31.00
2018-05-13T03:12:59.240Z,26.93
2018-05-13T03:15:26.770Z,35.53
2018-05-13T03:17:54.339Z,29.70
2018-05-13T03:20:21.881Z,31.90
2018-05-13T03:22:49.520Z,37.77
2018-05-13T03:25:17.095Z,44.97
2018-05-13T03:27:44.635Z,43.07
2018-05-13T03:30:12.216Z,45.67
2018-05-13T03:32:39.929Z,45.73
2018-05-13T03:35:07.529Z,45.07
2018-05-13T03:37:35.212Z,47.28
2018-05-13T03:40:02.801Z,38.67
2018-05-13T03:42:30.403Z,38.10
2018-05-13T03:44:58.164Z,40.30
2018-05-13T03:47:25.706Z,31.40
2018-05-13T03:49:53.309Z,35.33
2018-05-13T03:52:20.869Z,33.27
2018-05-13T03:54:48.635Z,28.70
2018-05-13T03:57:16.167Z,22.70
2018-05-13T03:59:43.723Z,17.70
2018-05-13T04:02:11.289Z,19.80
2018-05-13T04:04:38.872Z,17.03
2018-05-13T04:07:06.416Z,24.50
2018-05-13T04:09:45.801Z,24.43
2018-05-13T04:12:25.273Z,16.60
2018-05-13T04:15:04.557Z,16.57
2018-05-13T04:17:32.883Z,14.53
2018-05-13T04:20:00.410Z,16.20
2018-05-13T04:22:27.989Z,15.33
2018-05-13T04:24:55.513Z,17.70
2018-05-13T04:27:23.102Z,18.10
2018-05-13T04:29:50.743Z,19.60
2018-05-13T04:32:18.333Z,18.33
2018-05-13T04:34:45.918Z,19.90
2018-05-13T04:37:13.462Z,19.37
2018-05-13T04:39:41.030Z,20.90
2018-05-13T04:42:08.613Z,20.87
2018-05-13T04:44:36.144Z,19.97
2018-05-13T04:47:03.709Z,30.30
2018-05-13T04:49:31.297Z,30.20
2018-05-13T04:51:58.817Z,30.43
2018-05-13T04:54:26.398Z,25.57
2018-05-13T04:56:54.013Z,31.70
2018-05-13T04:59:21.556Z,26.23
2018-05-13T05:01:49.120Z,27.67
2018-05-13T05:04:16.677Z,31.27
2018-05-13T05:06:44.242Z,27.97
2018-05-13T05:09:11.802Z,43.20
2018-05-13T05:11:39.313Z,44.17
2018-05-13T05:14:06.895Z,36.63
2018-05-13T05:16:34.549Z,37.10
2018-05-13T05:19:02.126Z,33.03
2018-05-13T05:21:29.744Z,42.10
2018-05-13T05:23:57.257Z,39.00
2018-05-13T05:26:24.829Z,53.00
2018-05-13T05:28:52.411Z,41.73
2018-05-13T05:31:19.953Z,35.77
2018-05-13T05:33:49.505Z,38.03
2018-05-13T05:36:17.039Z,46.10
2018-05-13T05:38:44.604Z,32.60
2018-05-13T05:41:12.141Z,35.87
2018-05-13T05:43:39.709Z,29.30
2018-05-13T05:46:07.232Z,24.37
2018-05-13T05:48:34.829Z,26.77
2018-05-13T05:51:02.370Z,21.33
2018-05-13T05:53:30.695Z,24.20
2018-05-13T05:55:58.229Z,23.03
2018-05-13T05:58:25.829Z,27.87
2018-05-13T06:00:53.410Z,25.67
2018-05-13T06:03:21.765Z,28.30
2018-05-13T06:05:49.364Z,28.10
2018-05-13T06:08:16.915Z,26.23
2018-05-13T06:10:44.514Z,23.43
2018-05-13T06:13:12.054Z,20.73
2018-05-13T06:15:39.632Z,23.20
2018-05-13T06:18:07.160Z,27.73
2018-05-13T06:20:34.727Z,28.30
2018-05-13T06:23:02.254Z,32.90
2018-05-13T06:25:29.879Z,30.53
2018-05-13T06:27:57.416Z,39.57
2018-05-13T06:30:24.982Z,36.37
2018-05-13T06:32:52.496Z,29.17
2018-05-13T06:35:20.075Z,35.67
2018-05-13T06:37:47.736Z,28.83
2018-05-13T06:40:15.302Z,33.47
2018-05-13T06:42:42.831Z,39.43
2018-05-13T06:45:11.292Z,27.03
2018-05-13T06:47:38.787Z,38.40
2018-05-13T06:50:06.370Z,27.03
2018-05-13T06:52:33.943Z,34.00
2018-05-13T06:55:01.519Z,26.33
2018-05-13T06:57:29.849Z,33.40
2018-05-13T06:59:57.420Z,32.80
2018-05-13T07:02:25.021Z,40.30
2018-05-13T07:04:52.537Z,47.03
2018-05-13T07:07:20.138Z,45.17
2018-05-13T07:09:47.746Z,31.27
2018-05-13T07:12:15.325Z,39.30
2018-05-13T07:14:43.077Z,40.87
2018-05-13T07:17:10.697Z,36.77
2018-05-13T07:19:38.326Z,39.47
2018-05-13T07:22:05.879Z,31.33
2018-05-13T07:24:33.503Z,44.50
2018-05-13T07:27:01.068Z,32.47
2018-05-13T07:29:28.660Z,34.57
2018-05-13T07:31:57.028Z,36.23
2018-05-13T07:34:24.602Z,38.53
2018-05-13T07:36:52.199Z,32.87
2018-05-13T07:39:19.763Z,45.27
2018-05-13T07:41:47.473Z,45.67
2018-05-13T07:44:15.018Z,55.67
2018-05-13T07:46:43.368Z,45.67
2018-05-13T07:49:10.919Z,62.87
2018-05-13T07:51:38.463Z,50.93
2018-05-13T07:54:06.052Z,49.43
2018-05-13T07:56:33.619Z,37.83
2018-05-13T07:59:02.834Z,43.23
2018-05-13T08:01:30.496Z,45.12
2018-05-13T08:03:58.077Z,40.33
2018-05-13T08:06:25.677Z,85.43
2018-05-13T08:08:54.767Z,41.80
2018-05-13T08:11:22.357Z,51.07
2018-05-13T08:13:49.982Z,45.93
2018-05-13T08:16:17.521Z,42.40
2018-05-13T08:18:45.109Z,44.30
2018-05-13T08:21:12.676Z,40.90
2018-05-13T08:23:40.219Z,41.10
2018-05-13T08:26:07.777Z,42.77
2018-05-13T08:28:35.408Z,52.67
2018-05-13T08:31:02.978Z,58.77
2018-05-13T08:33:30.649Z,42.20
2018-05-13T08:35:58.286Z,40.60
2018-05-13T08:38:25.833Z,44.70
2018-05-13T08:40:53.404Z,47.00
2018-05-13T08:43:20.976Z,48.57
2018-05-13T08:45:48.588Z,40.20
2018-05-13T08:48:16.139Z,48.13
2018-05-13T08:50:43.711Z,45.80
2018-05-13T08:53:12.012Z,42.57
2018-05-13T08:55:39.620Z,44.33
2018-05-13T08:58:07.236Z,39.60
2018-05-13T09:03:10.894Z,37.73
2018-05-13T09:05:38.424Z,42.57
2018-05-13T09:08:06.067Z,42.57
2018-05-13T09:10:33.631Z,32.80
2018-05-13T09:13:01.261Z,34.57
2018-05-13T09:15:28.842Z,42.57
2018-05-13T09:17:56.436Z,44.93
2018-05-13T09:20:24.159Z,37.80
2018-05-13T09:22:51.772Z,35.43
2018-05-13T09:25:20.622Z,41.53
2018-05-13T09:27:48.171Z,42.73
2018-05-13T09:30:16.484Z,29.73
2018-05-13T09:32:44.299Z,28.70
2018-05-13T09:35:11.976Z,28.90
2018-05-13T09:37:39.614Z,36.50
2018-05-13T09:40:07.188Z,45.30
2018-05-13T09:42:34.963Z,50.07
2018-05-13T09:45:02.537Z,38.60
2018-05-13T09:47:30.082Z,49.27
2018-05-13T09:49:57.666Z,44.97
2018-05-13T09:52:25.188Z,42.60
2018-05-13T09:54:52.861Z,45.40
2018-05-13T09:57:20.426Z,39.93
2018-05-13T09:59:48.795Z,33.43
2018-05-13T10:02:16.326Z,35.60
2018-05-13T10:04:43.944Z,29.50
2018-05-13T10:07:11.606Z,30.50
2018-05-13T10:09:39.192Z,35.20
2018-05-13T10:12:07.502Z,26.93
2018-05-13T10:14:35.507Z,35.43
2018-05-13T10:17:03.070Z,34.00
2018-05-13T10:19:31.397Z,33.30
2018-05-13T10:21:59.040Z,31.03
2018-05-13T10:24:26.571Z,34.57
2018-05-13T10:26:54.118Z,35.67
2018-05-13T10:29:21.687Z,35.73
2018-05-13T10:31:50.030Z,32.67
2018-05-13T10:34:17.643Z,32.60
2018-05-13T10:36:45.270Z,27.63
2018-05-13T10:39:13.618Z,38.20
2018-05-13T10:41:41.202Z,31.13
2018-05-13T10:44:09.621Z,34.77
2018-05-13T10:46:37.252Z,30.37
2018-05-13T10:49:04.831Z,30.57
2018-05-13T10:51:32.387Z,26.50
2018-05-13T10:53:59.993Z,27.70
2018-05-13T10:56:27.553Z,26.73
2018-05-13T10:58:55.253Z,30.13
2018-05-13T11:01:22.894Z,29.10
2018-05-13T11:03:50.427Z,25.83
2018-05-13T11:06:18.781Z,24.27
2018-05-13T11:08:46.360Z,25.93
2018-05-13T11:11:13.935Z,25.73
2018-05-13T11:13:42.354Z,30.70
2018-05-13T11:16:09.928Z,21.00
2018-05-13T11:18:37.505Z,22.30
2018-05-13T11:21:05.089Z,22.63
2018-05-13T11:23:33.404Z,26.03
2018-05-13T11:26:00.968Z,24.07
2018-05-13T11:28:28.655Z,23.37
2018-05-13T11:30:56.263Z,24.97
2018-05-13T11:33:23.800Z,22.70
2018-05-13T11:35:51.408Z,26.40
2018-05-13T11:38:18.993Z,25.00
2018-05-13T11:40:46.611Z,22.17
2018-05-13T11:43:14.211Z,22.93
2018-05-13T11:45:42.522Z,22.47
2018-05-13T11:48:10.888Z,20.37
2018-05-13T11:50:39.216Z,22.93
2018-05-13T11:53:06.799Z,24.43
2018-05-13T11:55:34.401Z,27.40
2018-05-13T11:58:01.995Z,23.93
2018-05-13T12:00:29.538Z,23.37
2018-05-13T12:02:57.110Z,22.47
2018-05-13T12:05:24.694Z,34.90
2018-05-13T12:07:53.067Z,23.63
2018-05-13T12:10:21.358Z,21.90
2018-05-13T12:12:49.725Z,21.20
2018-05-13T12:15:18.036Z,22.47
2018-05-13T12:17:45.630Z,24.90
2018-05-13T12:20:13.217Z,23.17
2018-05-13T12:22:40.752Z,24.67
2018-05-13T12:25:08.288Z,26.03
2018-05-13T12:27:35.869Z,29.63
2018-05-13T12:30:03.482Z,22.47
2018-05-13T12:32:31.019Z,21.83
2018-05-13T12:34:59.367Z,22.43
2018-05-13T12:37:26.911Z,23.87
2018-05-13T12:39:54.549Z,28.17
2018-05-13T12:42:22.126Z,29.73
2018-05-13T12:44:49.684Z,26.70
2018-05-13T12:47:17.279Z,24.27
2018-05-13T12:49:45.583Z,21.77
2018-05-13T12:52:13.165Z,20.67
2018-05-13T12:54:40.734Z,21.63
2018-05-13T12:57:08.493Z,23.33
2018-05-13T12:59:36.088Z,22.73
2018-05-13T13:02:04.475Z,20.57
2018-05-13T13:04:32.805Z,26.53
2018-05-13T13:07:00.393Z,25.17
2018-05-13T13:09:28.019Z,24.07
2018-05-13T13:11:55.614Z,25.53
2018-05-13T13:14:23.185Z,22.13
2018-05-13T13:16:50.965Z,22.90
2018-05-13T13:19:18.564Z,22.00
2018-05-13T13:21:46.144Z,22.80
2018-05-13T13:24:13.683Z,21.20
2018-05-13T13:26:41.280Z,26.00
2018-05-13T13:29:08.862Z,21.33
2018-05-13T13:31:36.433Z,21.50
2018-05-13T13:34:03.998Z,25.87
2018-05-13T13:36:32.045Z,20.40
2018-05-13T13:38:59.634Z,19.50
2018-05-13T13:41:27.371Z,17.57
2018-05-13T13:43:54.909Z,21.90
2018-05-13T13:46:23.253Z,18.07
2018-05-13T13:48:50.836Z,19.00
2018-05-13T13:51:18.379Z,18.87
2018-05-13T13:53:45.990Z,18.20
2018-05-13T13:56:13.589Z,18.70
2018-05-13T13:58:41.161Z,20.20
2018-05-13T14:01:09.548Z,18.70
2018-05-13T14:03:37.855Z,15.40
2018-05-13T14:06:05.438Z,18.13
2018-05-13T14:08:33.133Z,15.47
2018-05-13T14:11:01.451Z,16.97
2018-05-13T14:13:29.037Z,18.50
2018-05-13T14:15:56.639Z,17.87
2018-05-13T14:18:24.181Z,18.90
2018-05-13T14:20:52.563Z,18.27
2018-05-13T14:23:20.967Z,19.50
2018-05-13T14:25:48.573Z,15.27
2018-05-13T14:28:16.209Z,15.10
2018-05-13T14:30:43.888Z,17.47
2018-05-13T14:33:11.438Z,20.80
2018-05-13T14:35:39.038Z,16.40
2018-05-13T14:38:06.574Z,18.10
2018-05-13T14:40:34.153Z,16.10
2018-05-13T14:43:01.716Z,15.13
2018-05-13T14:45:29.316Z,13.50
2018-05-13T14:47:56.933Z,13.37
2018-05-13T14:50:24.503Z,15.50
2018-05-13T14:52:53.654Z,16.20
2018-05-13T14:55:21.222Z,14.53
2018-05-13T14:57:49.588Z,16.13
2018-05-13T15:00:17.190Z,14.60
2018-05-13T15:02:44.789Z,15.00
2018-05-13T15:05:12.434Z,12.83
2018-05-13T15:07:40.094Z,14.17
2018-05-13T15:10:07.752Z,12.93
2018-05-13T15:12:35.326Z,12.80
2018-05-13T15:15:03.006Z,13.57
2018-05-13T15:17:30.799Z,16.90
2018-05-13T15:19:59.173Z,13.53
2018-05-13T15:22:33.437Z,18.13
2018-05-13T15:25:01.025Z,15.17
2018-05-13T15:27:28.606Z,19.57
2018-05-13T15:29:56.956Z,17.57
2018-05-13T15:32:24.783Z,16.60
2018-05-13T15:34:52.334Z,14.80
2018-05-13T15:37:19.909Z,18.63
2018-05-13T15:39:47.458Z,14.37
2018-05-13T15:42:15.042Z,17.00
2018-05-13T15:44:42.617Z,15.23
2018-05-13T15:47:10.172Z,15.50
2018-05-13T15:49:37.758Z,16.50
2018-05-13T15:52:05.289Z,16.17
2018-05-13T15:54:32.859Z,14.87
2018-05-13T15:57:00.574Z,15.57
2018-05-13T15:59:28.131Z,21.23
2018-05-13T16:01:55.722Z,16.03
2018-05-13T16:04:23.265Z,16.93
2018-05-13T16:06:50.846Z,18.90
2018-05-13T16:09:18.440Z,16.10
2018-05-13T16:11:46.034Z,15.17
2018-05-13T16:14:13.641Z,17.93
2018-05-13T16:16:41.969Z,16.43
2018-05-13T16:19:09.783Z,16.83
2018-05-13T16:21:38.141Z,17.97
2018-05-13T16:24:06.518Z,17.33
2018-05-13T16:26:34.887Z,15.00
2018-05-13T16:29:02.423Z,17.00
2018-05-13T16:31:30.009Z,16.10
2018-05-13T16:33:57.641Z,19.40
2018-05-13T16:36:25.290Z,16.77
2018-05-13T16:38:53.021Z,17.97
2018-05-13T16:41:20.566Z,17.57
2018-05-13T16:43:48.910Z,16.20
2018-05-13T16:46:16.549Z,15.27
2018-05-13T16:48:44.207Z,15.10
2018-05-13T16:51:12.506Z,17.90
2018-05-13T16:53:40.112Z,17.40
2018-05-13T16:56:07.708Z,16.67
2018-05-13T16:58:35.277Z,16.57
2018-05-13T17:01:02.852Z,17.30
2018-05-13T17:03:30.444Z,17.33
2018-05-13T17:05:58.132Z,17.57
2018-05-13T17:08:25.715Z,18.63
2018-05-13T17:10:53.278Z,17.77
2018-05-13T17:13:20.871Z,17.13
2018-05-13T17:15:50.416Z,14.87
2018-05-13T17:18:18.163Z,15.93
2018-05-13T17:20:45.749Z,15.93
2018-05-13T17:23:13.330Z,16.57
2018-05-13T17:25:41.248Z,15.77
2018-05-13T17:28:08.809Z,15.70
2018-05-13T17:30:36.337Z,14.80
2018-05-13T17:33:03.906Z,15.30
2018-05-13T17:35:31.589Z,14.70
2018-05-13T17:37:59.157Z,15.23
2018-05-13T17:40:26.762Z,18.17
2018-05-13T17:42:54.298Z,20.87
2018-05-13T17:45:21.911Z,16.27
2018-05-13T17:47:49.475Z,15.27
2018-05-13T17:50:17.239Z,16.20
2018-05-13T17:52:44.804Z,14.23
2018-05-13T17:55:12.341Z,13.37
2018-05-13T17:57:40.028Z,16.00
2018-05-13T18:00:07.508Z,17.97
2018-05-13T18:02:35.236Z,18.37
2018-05-13T18:05:02.788Z,13.77
2018-05-13T18:07:30.439Z,15.67
2018-05-13T18:09:58.022Z,14.70
2018-05-13T18:12:26.168Z,13.80
2018-05-13T18:14:53.741Z,21.27
2018-05-13T18:17:21.372Z,17.43
2018-05-13T18:19:48.934Z,18.50
2018-05-13T18:22:16.477Z,19.00
2018-05-13T18:24:44.144Z,14.17
2018-05-13T18:27:11.606Z,15.43
2018-05-13T18:29:39.211Z,15.27
2018-05-13T18:32:06.881Z,13.67
2018-05-13T18:34:34.430Z,15.77
2018-05-13T18:37:02.018Z,17.43
2018-05-13T18:39:29.553Z,14.17
2018-05-13T18:41:57.143Z,15.97
2018-05-13T18:44:24.730Z,11.37
2018-05-13T18:46:52.278Z,12.37
2018-05-13T18:49:19.865Z,17.30
2018-05-13T18:51:47.478Z,14.97
2018-05-13T18:54:16.386Z,14.37
2018-05-13T18:56:43.967Z,12.13
2018-05-13T18:59:11.602Z,14.63
2018-05-13T19:01:39.179Z,15.03
2018-05-13T19:04:06.693Z,19.53
2018-05-13T19:06:34.355Z,13.93
2018-05-13T19:09:01.834Z,14.07
2018-05-13T19:11:29.434Z,15.13
2018-05-13T19:13:57.059Z,15.33
2018-05-13T19:16:24.732Z,13.70
2018-05-13T19:18:52.379Z,13.50
2018-05-13T19:21:19.887Z,12.90
2018-05-13T19:23:47.458Z,16.00
2018-05-13T19:26:15.797Z,14.83
2018-05-13T19:28:43.340Z,13.80
2018-05-13T19:31:10.881Z,16.30
2018-05-13T19:33:39.159Z,14.37
2018-05-13T19:36:07.809Z,12.10
2018-05-13T19:38:38.807Z,14.70
2018-05-13T19:41:06.505Z,17.63
2018-05-13T19:43:34.033Z,16.83
2018-05-13T19:46:01.599Z,15.93
2018-05-13T19:48:29.167Z,16.50
2018-05-13T19:50:56.742Z,13.47
2018-05-13T19:53:24.270Z,16.73
2018-05-13T19:55:51.836Z,16.10
2018-05-13T19:58:19.477Z,14.63
2018-05-13T20:00:47.053Z,16.73
2018-05-13T20:03:14.627Z,14.23
2018-05-13T20:05:42.227Z,16.30
2018-05-13T20:08:09.774Z,15.67
2018-05-13T20:10:37.437Z,20.70
2018-05-13T20:13:04.990Z,16.50
2018-05-13T20:15:32.578Z,18.80
2018-05-13T20:18:00.104Z,17.23
2018-05-13T20:20:27.787Z,18.23
2018-05-13T20:23:07.104Z,18.70
2018-05-13T20:25:34.679Z,18.70
2018-05-13T20:28:02.198Z,22.13
2018-05-13T20:30:29.775Z,20.07
2018-05-13T20:32:57.309Z,24.10
2018-05-13T20:35:24.975Z,19.63
2018-05-13T20:37:52.542Z,22.13
2018-05-13T20:40:20.122Z,23.60
2018-05-13T20:42:47.757Z,21.73
2018-05-13T20:45:15.337Z,20.27
2018-05-13T20:47:42.877Z,18.60
2018-05-13T20:50:10.443Z,20.50
2018-05-13T20:52:37.986Z,21.83
2018-05-13T20:55:05.541Z,22.20
2018-05-13T20:57:33.261Z,22.77
2018-05-13T21:00:00.803Z,25.83
2018-05-13T21:02:28.362Z,22.63
2018-05-13T21:04:56.105Z,23.57
2018-05-13T21:07:23.626Z,24.13
2018-05-13T21:09:51.969Z,31.07
2018-05-13T21:12:19.553Z,28.57
2018-05-13T21:14:47.127Z,34.17
2018-05-13T21:17:14.716Z,33.00
2018-05-13T21:19:42.241Z,31.23
2018-05-13T21:22:09.833Z,31.53
2018-05-13T21:24:37.431Z,30.90
2018-05-13T21:27:05.972Z,32.50
2018-05-13T21:29:33.572Z,32.63
2018-05-13T21:32:01.856Z,29.43
2018-05-13T21:34:30.195Z,34.90
2018-05-13T21:36:57.744Z,34.23
2018-05-13T21:39:25.310Z,34.07
2018-05-13T21:41:52.868Z,33.13
2018-05-13T21:44:20.439Z,33.80
2018-05-13T21:46:48.019Z,41.03
2018-05-13T21:49:15.799Z,34.87
2018-05-13T21:51:43.393Z,37.17
2018-05-13T21:54:10.982Z,39.40
2018-05-13T21:56:38.562Z,37.07
2018-05-13T21:59:06.249Z,33.30
2018-05-13T22:01:33.785Z,36.03
2018-05-13T22:04:01.362Z,38.87
2018-05-13T22:06:28.881Z,39.70
2018-05-13T22:08:56.482Z,40.43
2018-05-13T22:11:24.103Z,42.03
2018-05-13T22:13:51.679Z,39.57
2018-05-13T22:16:20.026Z,42.73
2018-05-13T22:18:47.601Z,40.30
2018-05-13T22:21:15.186Z,44.47
2018-05-13T22:23:42.759Z,40.10
2018-05-13T22:26:10.321Z,34.77
2018-05-13T22:28:37.864Z,36.80
2018-05-13T22:31:05.459Z,34.37
2018-05-13T22:33:33.069Z,38.60
2018-05-13T22:36:00.635Z,33.23
2018-05-13T22:38:28.943Z,47.53
2018-05-13T22:40:56.527Z,42.37
2018-05-13T22:43:24.875Z,36.47
2018-05-13T22:45:52.465Z,37.10
2018-05-13T22:48:20.050Z,36.07
2018-05-13T22:50:47.702Z,41.43
2018-05-13T22:53:15.274Z,40.20
2018-05-13T22:55:42.986Z,42.57
2018-05-13T22:58:10.565Z,39.20
2018-05-13T23:00:38.158Z,42.93
2018-05-13T23:03:05.715Z,39.50
2018-05-13T23:05:33.404Z,36.07
2018-05-13T23:08:01.768Z,39.90
2018-05-13T23:10:29.417Z,31.20
2018-05-13T23:12:56.974Z,37.33
2018-05-13T23:15:24.599Z,36.00
2018-05-13T23:17:52.237Z,36.23
2018-05-13T23:20:19.850Z,33.33
2018-05-13T23:22:48.153Z,36.40
2018-05-13T23:25:15.747Z,39.33
2018-05-13T23:27:43.312Z,33.07
2018-05-13T23:30:12.477Z,35.57
2018-05-13T23:32:40.060Z,32.67
2018-05-13T23:35:07.631Z,32.73
2018-05-13T23:37:35.184Z,29.97
2018-05-13T23:40:02.979Z,30.07
2018-05-13T23:42:30.678Z,30.00
2018-05-13T23:44:58.983Z,29.37
2018-05-13T23:47:27.200Z,25.13
2018-05-13T23:49:54.859Z,26.83
2018-05-13T23:52:22.415Z,24.10
2018-05-13T23:54:50.005Z,23.90
2018-05-13T23:57:17.530Z,28.73
2018-05-13T23:59:45.113Z,26.52
